Time;durP1;ratioP1;P1;durP2;ratioP2;P2;SDS_P1;SDS_P2;PMS_P1;PMS_P2;Temp;Humidity;BMP_temperature;BMP_pressure;BME280_temperature;BME280_humidity;BME280_pressure;Samples;Min_cycle;Max_cycle;Signal;HPM_P1;HPM_P2
2021/11/10 00:01:46;;;;;;;16.53;8.23;;;;;;;5.07;100.00;101921.66;7400186;19;20404;-51
2021/11/10 00:04:19;;;;;;;18.57;8.47;;;;;;;5.20;100.00;101913.31;7404483;19;20395;-49
2021/11/10 00:06:48;;;;;;;11.70;7.33;;;;;;;5.25;100.00;101912.94;7400391;19;20455;-47
2021/11/10 00:09:18;;;;;;;15.20;9.10;;;;;;;5.34;100.00;101906.75;7404015;19;20399;-46
2021/11/10 00:11:48;;;;;;;18.03;8.33;;;;;;;5.24;100.00;101906.00;7396794;19;20387;-49
2021/11/10 00:14:18;;;;;;;19.13;8.50;;;;;;;5.27;100.00;101908.81;7404273;19;20403;-45
2021/11/10 00:16:47;;;;;;;17.00;7.70;;;;;;;5.40;100.00;101913.25;7396021;19;20451;-47
2021/11/10 00:19:19;;;;;;;15.50;7.73;;;;;;;5.17;100.00;101913.94;7403837;19;20792;-45
2021/11/10 00:21:49;;;;;;;19.83;8.10;;;;;;;5.12;100.00;101912.66;7402110;19;20395;-47
2021/11/10 00:24:18;;;;;;;14.70;6.47;;;;;;;5.01;100.00;101916.91;7403683;19;20384;-44
2021/11/10 00:26:48;;;;;;;15.80;7.47;;;;;;;4.91;100.00;101905.00;7397692;19;20410;-50
2021/11/10 00:29:17;;;;;;;15.40;7.10;;;;;;;4.84;100.00;101913.84;7402340;19;20456;-47
2021/11/10 00:31:47;;;;;;;24.43;8.23;;;;;;;4.78;100.00;101907.31;7394419;19;20392;-49
2021/11/10 00:34:19;;;;;;;17.00;7.83;;;;;;;4.78;100.00;101903.09;7403416;19;20715;-48
2021/11/10 00:36:48;;;;;;;21.50;7.70;;;;;;;4.77;100.00;101901.28;7394720;19;20720;-50
2021/11/10 00:39:18;;;;;;;16.40;7.30;;;;;;;4.74;100.00;101901.03;7403510;19;20853;-50
2021/11/10 00:41:47;;;;;;;14.80;7.63;;;;;;;4.74;100.00;101893.38;7395394;19;20455;-47
2021/11/10 00:44:17;;;;;;;18.57;8.70;;;;;;;4.78;100.00;101887.75;7399356;19;20395;-47
2021/11/10 00:46:46;;;;;;;21.97;7.67;;;;;;;4.72;100.00;101890.69;7391809;19;20402;-51
2021/11/10 00:49:19;;;;;;;19.00;7.97;;;;;;;4.76;100.00;101901.19;7398388;19;20459;-47
2021/11/10 00:51:48;;;;;;;15.53;7.00;;;;;;;4.76;100.00;101903.75;7397161;19;20398;-50
2021/11/10 00:54:18;;;;;;;14.27;6.50;;;;;;;4.69;100.00;101902.31;7400104;19;20416;-47
2021/11/10 00:56:47;;;;;;;14.63;7.23;;;;;;;4.74;100.00;101893.38;7397808;19;20410;-47
2021/11/10 00:59:17;;;;;;;17.60;7.73;;;;;;;4.81;100.00;101892.22;7399237;19;20406;-50
2021/11/10 01:01:46;;;;;;;11.90;6.17;;;;;;;4.76;100.00;101888.41;7392330;19;20404;-51
2021/11/10 01:04:18;;;;;;;13.20;6.70;;;;;;;4.75;100.00;101886.59;7399555;19;20424;-45
2021/11/10 01:06:48;;;;;;;15.70;6.43;;;;;;;4.68;100.00;101885.19;7396336;19;20392;-45
2021/11/10 01:09:19;;;;;;;19.37;7.30;;;;;;;4.66;100.00;101886.75;7398297;19;20415;-45
2021/11/10 01:11:49;;;;;;;15.90;6.67;;;;;;;4.67;100.00;101891.94;7390751;19;20384;-45
2021/11/10 01:14:20;;;;;;;15.07;7.03;;;;;;;4.81;100.00;101887.09;7398913;19;20398;-44
2021/11/10 01:16:49;;;;;;;22.37;9.23;;;;;;;5.08;100.00;101883.38;7391121;19;20740;-44
2021/11/10 01:19:21;;;;;;;19.70;9.20;;;;;;;5.38;100.00;101883.19;7397723;19;20404;-45
2021/11/10 01:21:51;;;;;;;13.17;7.23;;;;;;;5.25;100.00;101887.34;7395072;19;20515;-46
2021/11/10 01:24:20;;;;;;;18.53;7.70;;;;;;;5.33;100.00;101887.94;7398611;19;20397;-46
2021/11/10 01:26:50;;;;;;;12.17;6.17;;;;;;;5.45;100.00;101889.72;7394932;19;20389;-46
2021/11/10 01:29:19;;;;;;;18.37;8.17;;;;;;;5.12;100.00;101892.19;7398796;19;20404;-46
2021/11/10 01:31:49;;;;;;;16.50;7.17;;;;;;;5.47;100.00;101894.19;7390409;19;20851;-48
2021/11/10 01:34:18;;;;;;;12.23;7.30;;;;;;;5.38;100.00;101885.75;7398804;19;20456;-48
2021/11/10 01:36:50;;;;;;;16.17;7.07;;;;;;;5.21;100.00;101876.69;7394690;19;20443;-47
2021/11/10 01:39:22;;;;;;;13.53;7.37;;;;;;;5.05;100.00;101887.34;7398559;19;20406;-48
2021/11/10 01:41:54;;;;;;;42.13;22.00;;;;;;;4.92;100.00;101885.44;7391411;19;20462;-46
2021/11/10 01:44:25;;;;;;;10.30;6.50;;;;;;;4.75;100.00;101884.03;7399327;19;20473;-48
2021/11/10 01:46:56;;;;;;;11.03;5.97;;;;;;;4.60;100.00;101887.09;7390662;19;20419;-46
2021/11/10 01:49:28;;;;;;;12.97;6.70;;;;;;;4.77;100.00;101879.97;7399619;19;20829;-46
2021/11/10 01:52:01;;;;;;;16.50;6.93;;;;;;;4.60;100.00;101881.97;7394740;19;20426;-46
2021/11/10 01:54:32;;;;;;;17.00;7.93;;;;;;;4.53;100.00;101880.59;7400095;19;20459;-44
2021/11/10 01:57:02;;;;;;;10.80;6.20;;;;;;;4.50;100.00;101869.22;7392674;19;20422;-46
2021/11/10 01:59:34;;;;;;;16.90;6.93;;;;;;;4.43;100.00;101873.81;7399712;19;20396;-46
2021/11/10 02:02:07;;;;;;;19.60;7.40;;;;;;;4.38;100.00;101872.53;7392753;19;20426;-45
2021/11/10 02:04:38;;;;;;;19.20;7.03;;;;;;;4.41;100.00;101870.22;7400871;19;20415;-44
2021/11/10 02:07:10;;;;;;;12.90;6.70;;;;;;;4.40;100.00;101875.19;7396078;19;20411;-45
2021/11/10 02:09:40;;;;;;;23.20;7.83;;;;;;;4.36;100.00;101871.47;7399846;19;20416;-44
2021/11/10 02:12:10;;;;;;;19.80;7.20;;;;;;;4.30;100.00;101866.75;7392079;19;20422;-45
2021/11/10 02:14:40;;;;;;;15.10;7.60;;;;;;;4.30;100.00;101864.19;7400471;19;20455;-44
2021/11/10 02:17:15;;;;;;;11.00;6.13;;;;;;;4.32;100.00;101860.09;7393075;19;20899;-43
2021/11/10 02:19:44;;;;;;;19.03;6.80;;;;;;;4.31;100.00;101862.53;7398775;19;20410;-44
2021/11/10 02:22:19;;;;;;;15.50;6.43;;;;;;;4.28;100.00;101857.16;7393596;19;20418;-44
2021/11/10 02:24:49;;;;;;;11.77;6.10;;;;;;;4.29;100.00;101859.84;7400311;19;20397;-44
2021/11/10 02:27:21;;;;;;;13.43;7.60;;;;;;;4.31;100.00;101854.88;7388503;19;20487;-46
2021/11/10 02:29:53;;;;;;;15.93;6.57;;;;;;;4.26;100.00;101853.59;7399185;19;20394;-50
2021/11/10 02:32:22;;;;;;;11.43;6.60;;;;;;;4.18;100.00;101848.72;7393483;19;20415;-46
2021/11/10 02:34:52;;;;;;;14.90;7.27;;;;;;;4.23;100.00;101840.53;7399979;19;20485;-46
2021/11/10 02:37:24;;;;;;;14.10;7.17;;;;;;;4.33;100.00;101836.34;7395425;19;20419;-48
2021/11/10 02:39:55;;;;;;;15.80;7.20;;;;;;;4.36;100.00;101830.59;7398877;19;20862;-44
2021/11/10 02:42:25;;;;;;;16.60;6.40;;;;;;;4.29;100.00;101841.97;7390884;19;20423;-44
2021/11/10 02:44:56;;;;;;;12.83;6.10;;;;;;;4.32;100.00;101841.34;7399787;19;20394;-45
2021/11/10 02:47:25;;;;;;;16.43;6.70;;;;;;;4.28;100.00;101841.81;7392515;19;20927;-45
2021/11/10 02:49:55;;;;;;;11.50;5.90;;;;;;;4.29;100.00;101839.41;7398588;19;20372;-48
2021/11/10 02:52:27;;;;;;;16.40;6.63;;;;;;;4.28;100.00;101837.63;7393811;19;20522;-48
2021/11/10 02:54:57;;;;;;;11.93;5.70;;;;;;;4.27;100.00;101832.38;7399812;19;20693;-46
2021/11/10 02:57:28;;;;;;;14.83;6.83;;;;;;;4.26;100.00;101828.91;7390518;19;20407;-46
2021/11/10 02:59:58;;;;;;;19.37;7.40;;;;;;;4.28;100.00;101822.28;7403277;19;20481;-47
2021/11/10 03:02:28;;;;;;;9.87;6.20;;;;;;;4.30;100.00;101830.06;7399910;19;20510;-48
2021/11/10 03:05:00;;;;;;;16.43;6.13;;;;;;;4.26;100.00;101828.03;7407446;19;20380;-47
2021/11/10 03:07:32;;;;;;;14.27;5.77;;;;;;;4.28;100.00;101813.72;7398988;19;20482;-44
2021/11/10 03:10:02;;;;;;;11.70;6.23;;;;;;;4.30;100.00;101807.06;7405980;19;20434;-48
2021/11/10 03:12:32;;;;;;;17.67;7.53;;;;;;;4.29;100.00;101795.97;7397803;19;20772;-45
2021/11/10 03:15:01;;;;;;;16.23;6.33;;;;;;;4.70;100.00;101802.75;7406522;19;20400;-45
2021/11/10 03:17:31;;;;;;;12.97;6.10;;;;;;;4.70;100.00;101805.28;7398953;19;20428;-45
2021/11/10 03:20:00;;;;;;;10.53;6.50;;;;;;;5.10;100.00;101793.97;7405142;19;20658;-44
2021/11/10 03:22:32;;;;;;;20.77;6.57;;;;;;;5.09;100.00;101784.50;7400291;19;20431;-49
2021/11/10 03:25:03;;;;;;;11.80;5.50;;;;;;;5.22;100.00;101784.72;7403082;19;20388;-46
2021/11/10 03:27:32;;;;;;;19.77;6.70;;;;;;;5.22;100.00;101784.72;7397894;19;20419;-49
2021/11/10 03:30:01;;;;;;;12.07;6.37;;;;;;;5.37;100.00;101786.69;7402063;19;20398;-50
2021/11/10 03:32:31;;;;;;;11.80;5.93;;;;;;;5.38;100.00;101781.72;7396368;19;20423;-44
2021/11/10 03:35:00;;;;;;;13.20;6.00;;;;;;;5.97;100.00;101785.38;7405846;19;20532;-45
2021/11/10 03:37:32;;;;;;;9.33;5.30;;;;;;;6.00;100.00;101782.16;7399257;19;20493;-44
2021/11/10 03:40:02;;;;;;;18.57;6.00;;;;;;;5.64;100.00;101790.53;7402340;19;20725;-50
2021/11/10 03:42:32;;;;;;;12.60;6.00;;;;;;;4.91;100.00;101797.59;7399412;19;20927;-48
2021/11/10 03:45:02;;;;;;;11.60;5.60;;;;;;;5.50;100.00;101780.91;7404912;19;20461;-47
2021/11/10 03:47:31;;;;;;;18.03;6.40;;;;;;;5.49;100.00;101790.22;7399343;19;20453;-47
2021/11/10 03:50:01;;;;;;;11.47;5.87;;;;;;;5.12;100.00;101797.53;7404149;19;20666;-50
2021/11/10 03:52:33;;;;;;;14.30;6.47;;;;;;;5.58;100.00;101791.75;7399140;19;20487;-48
2021/11/10 03:55:02;;;;;;;11.60;5.53;;;;;;;5.88;100.00;101802.56;7405211;19;20428;-48
2021/11/10 03:57:32;;;;;;;12.20;6.60;;;;;;;5.85;100.00;101795.53;7398864;19;20466;-46
2021/11/10 04:00:01;;;;;;;14.43;6.40;;;;;;;5.99;100.00;101804.31;7404367;19;20480;-44
2021/11/10 04:02:31;;;;;;;13.07;6.17;;;;;;;5.85;100.00;101810.03;7401229;19;21065;-48
2021/11/10 04:05:00;;;;;;;10.40;5.70;;;;;;;5.70;100.00;101819.97;7405915;19;20476;-45
2021/11/10 04:07:32;;;;;;;11.20;5.77;;;;;;;5.74;100.00;101810.09;7401447;19;20440;-51
2021/11/10 04:10:02;;;;;;;14.00;6.20;;;;;;;5.32;100.00;101818.75;7405143;19;20676;-45
2021/11/10 04:12:31;;;;;;;12.03;6.10;;;;;;;5.44;100.00;101813.69;7397483;19;20518;-45
2021/11/10 04:15:01;;;;;;;15.10;5.87;;;;;;;6.12;100.00;101810.41;7406627;19;20923;-47
2021/11/10 04:17:30;;;;;;;13.90;5.87;;;;;;;5.37;100.00;101813.19;7399027;19;20525;-47
2021/11/10 04:20:00;;;;;;;8.00;5.10;;;;;;;5.66;100.00;101813.72;7404676;19;20412;-47
2021/11/10 04:22:29;;;;;;;14.50;6.67;;;;;;;5.58;100.00;101809.66;7399649;19;20438;-49
2021/11/10 04:25:01;;;;;;;11.47;6.07;;;;;;;5.00;100.00;101821.38;7405351;19;21741;-45
2021/11/10 04:27:31;;;;;;;10.80;5.80;;;;;;;5.21;100.00;101828.09;7397809;19;20428;-47
2021/11/10 04:30:00;;;;;;;11.30;6.00;;;;;;;4.48;100.00;101824.72;7405116;19;20679;-47
2021/11/10 04:32:30;;;;;;;11.17;5.77;;;;;;;4.05;100.00;101827.97;7398710;19;20531;-47
2021/11/10 04:34:59;;;;;;;12.67;6.33;;;;;;;3.91;100.00;101820.03;7405670;19;20733;-48
2021/11/10 04:37:29;;;;;;;12.33;5.63;;;;;;;4.57;100.00;101820.41;7401057;19;20429;-46
2021/11/10 04:40:01;;;;;;;12.17;6.37;;;;;;;4.49;100.00;101826.50;7405323;19;20482;-48
2021/11/10 04:42:30;;;;;;;11.93;6.70;;;;;;;4.12;100.00;101821.75;7396150;19;20490;-47
2021/11/10 04:45:03;;;;;;;15.57;6.67;;;;;;;4.63;100.00;101831.13;7406046;19;20418;-49
2021/11/10 04:47:33;;;;;;;12.20;5.97;;;;;;;4.79;100.00;101819.59;7398553;19;20523;-51
2021/11/10 04:50:03;;;;;;;12.80;6.20;;;;;;;5.36;100.00;101803.75;7404434;19;20491;-46
2021/11/10 04:52:34;;;;;;;18.10;6.37;;;;;;;5.49;100.00;101807.28;7398071;19;20448;-52
2021/11/10 04:55:08;;;;;;;20.70;7.17;;;;;;;4.77;100.00;101808.34;7402266;19;20449;-46
2021/11/10 04:57:38;;;;;;;25.27;10.80;;;;;;;4.45;100.00;101810.94;7395069;19;20451;-44
2021/11/10 05:00:09;;;;;;;36.33;19.20;;;;;;;5.57;100.00;101798.53;7401130;19;20666;-45
2021/11/10 05:02:39;;;;;;;20.70;10.10;;;;;;;4.75;100.00;101809.88;7396720;19;20709;-46
2021/11/10 05:05:10;;;;;;;14.03;7.20;;;;;;;4.31;100.00;101809.75;7402132;19;20412;-45
2021/11/10 05:07:39;;;;;;;11.93;6.10;;;;;;;4.03;100.00;101811.66;7396881;19;20503;-47
2021/11/10 05:10:11;;;;;;;24.03;9.60;;;;;;;4.02;100.00;101812.41;7401459;19;20415;-44
2021/11/10 05:12:41;;;;;;;15.47;7.77;;;;;;;3.81;100.00;101807.25;7392793;19;20431;-43
2021/11/10 05:15:12;;;;;;;12.57;6.03;;;;;;;3.71;100.00;101804.66;7401908;19;20422;-44
2021/11/10 05:17:41;;;;;;;15.57;6.80;;;;;;;3.62;100.00;101795.47;7394812;19;20507;-44
2021/11/10 05:20:12;;;;;;;42.63;19.97;;;;;;;3.80;100.00;101800.38;7398481;19;20408;-45
2021/11/10 05:22:42;;;;;;;16.77;7.77;;;;;;;3.80;100.00;101790.16;7393695;19;20535;-44
2021/11/10 05:25:15;;;;;;;13.47;7.17;;;;;;;3.64;100.00;101793.94;7399611;19;20412;-45
2021/11/10 05:27:44;;;;;;;14.00;6.83;;;;;;;3.55;100.00;101799.91;7395724;19;20439;-46
2021/11/10 05:30:14;;;;;;;10.97;7.13;;;;;;;3.49;100.00;101790.94;7403886;19;20418;-45
2021/11/10 05:32:44;;;;;;;13.60;6.53;;;;;;;3.51;100.00;101789.44;7395216;19;20506;-44
2021/11/10 05:35:14;;;;;;;21.40;8.70;;;;;;;3.50;100.00;101785.06;7401748;19;20424;-47
2021/11/10 05:37:44;;;;;;;18.10;8.37;;;;;;;3.62;100.00;101776.69;7399027;19;20531;-46
2021/11/10 05:40:16;;;;;;;28.00;13.40;;;;;;;3.72;100.00;101770.72;7402908;19;20770;-45
2021/11/10 05:42:45;;;;;;;18.20;7.70;;;;;;;3.67;100.00;101777.06;7395038;19;20451;-44
2021/11/10 05:45:15;;;;;;;13.47;7.60;;;;;;;3.54;100.00;101775.16;7403343;19;20412;-44
2021/11/10 05:47:45;;;;;;;22.33;9.10;;;;;;;3.44;100.00;101776.00;7396549;19;20483;-44
2021/11/10 05:50:14;;;;;;;35.60;17.17;;;;;;;3.67;100.00;101777.06;7402988;19;20483;-45
2021/11/10 05:52:45;;;;;;;12.20;6.90;;;;;;;3.68;100.00;101782.31;7397528;19;20501;-47
2021/11/10 05:55:17;;;;;;;19.97;9.37;;;;;;;3.51;100.00;101775.78;7398969;19;20448;-44
2021/11/10 05:57:48;;;;;;;20.57;11.07;;;;;;;3.74;100.00;101772.63;7396948;19;20502;-44
2021/11/10 06:00:18;;;;;;;18.23;7.23;;;;;;;3.65;100.00;101764.22;7402586;19;20392;-45
2021/11/10 06:02:47;;;;;;;27.17;9.57;;;;;;;3.53;100.00;101764.03;7394209;19;20483;-47
2021/11/10 06:05:18;;;;;;;15.80;8.50;;;;;;;3.50;100.00;101768.88;7400502;19;20390;-45
2021/11/10 06:07:48;;;;;;;17.47;7.10;;;;;;;3.48;100.00;101775.50;7396241;19;20483;-44
2021/11/10 06:10:21;;;;;;;15.00;7.30;;;;;;;3.54;100.00;101776.03;7399454;19;20471;-44
2021/11/10 06:12:51;;;;;;;22.33;9.80;;;;;;;3.44;100.00;101776.00;7395252;19;20482;-46
2021/11/10 06:15:22;;;;;;;13.03;6.90;;;;;;;3.35;100.00;101779.53;7398801;19;20398;-45
2021/11/10 06:17:52;;;;;;;16.20;8.93;;;;;;;3.43;100.00;101776.78;7390161;19;20518;-47
2021/11/10 06:20:21;;;;;;;17.77;8.07;;;;;;;3.59;100.00;101779.88;7400300;19;21120;-45
2021/11/10 06:22:51;;;;;;;22.60;9.73;;;;;;;3.46;100.00;101777.94;7392576;19;20445;-44
2021/11/10 06:25:23;;;;;;;14.73;7.00;;;;;;;3.38;100.00;101768.69;7400721;19;20455;-44
2021/11/10 06:27:52;;;;;;;25.10;11.40;;;;;;;3.83;100.00;101764.88;7388933;19;20446;-44
2021/11/10 06:30:23;;;;;;;14.83;8.83;;;;;;;3.72;100.00;101769.06;7396061;19;20395;-44
2021/11/10 06:32:53;;;;;;;15.30;7.10;;;;;;;3.55;100.00;101767.63;7389715;19;20423;-45
2021/11/10 06:35:22;;;;;;;19.40;7.30;;;;;;;3.51;100.00;101770.66;7395643;19;20387;-47
2021/11/10 06:37:52;;;;;;;28.40;11.20;;;;;;;3.65;100.00;101775.28;7391342;19;20416;-46
2021/11/10 06:40:24;;;;;;;16.37;7.93;;;;;;;3.49;100.00;101785.84;7400371;19;20471;-44
2021/11/10 06:42:53;;;;;;;19.67;9.53;;;;;;;3.40;100.00;101784.16;7389164;19;20770;-45
2021/11/10 06:45:25;;;;;;;24.33;10.23;;;;;;;3.46;100.00;101777.03;7396807;19;20389;-49
2021/11/10 06:47:54;;;;;;;21.13;10.30;;;;;;;3.92;100.00;101775.91;7388830;19;20399;-47
2021/11/10 06:50:24;;;;;;;15.20;7.57;;;;;;;3.89;100.00;101779.81;7396288;19;20738;-45
2021/11/10 06:52:53;;;;;;;21.87;8.80;;;;;;;3.65;100.00;101785.50;7391376;19;20414;-46
2021/11/10 06:55:26;;;;;;;15.90;8.53;;;;;;;3.84;100.00;101784.53;7396608;19;20388;-48
2021/11/10 06:57:56;;;;;;;20.30;8.70;;;;;;;4.19;100.00;101784.09;7389467;19;20487;-49
2021/11/10 07:00:26;;;;;;;14.10;8.63;;;;;;;4.08;100.00;101786.47;7398068;19;20413;-47
2021/11/10 07:02:55;;;;;;;16.10;8.97;;;;;;;4.38;100.00;101782.16;7391174;19;20435;-45
2021/11/10 07:05:25;;;;;;;16.20;7.57;;;;;;;4.14;100.00;101780.25;7397187;19;20455;-46
2021/11/10 07:07:55;;;;;;;24.27;11.70;;;;;;;5.13;100.00;101769.50;7391693;19;20487;-44
2021/11/10 07:10:27;;;;;;;13.43;7.60;;;;;;;4.98;100.00;101771.72;7396894;19;20399;-44
2021/11/10 07:12:56;;;;;;;15.70;7.37;;;;;;;5.34;100.00;101779.66;7390003;19;20683;-45
2021/11/10 07:15:29;;;;;;;46.73;24.77;;;;;;;5.78;100.00;101772.78;7396303;19;20406;-46
2021/11/10 07:17:59;;;;;;;15.37;7.17;;;;;;;4.73;100.00;101786.75;7389704;19;20455;-45
2021/11/10 07:20:28;;;;;;;16.73;7.27;;;;;;;4.27;100.00;101789.84;7396158;19;20388;-48
2021/11/10 07:22:59;;;;;;;15.37;6.53;;;;;;;4.05;100.00;101798.25;7391131;19;20436;-45
2021/11/10 07:25:32;;;;;;;19.30;7.77;;;;;;;4.03;100.00;101803.97;7397426;19;20429;-46
2021/11/10 07:28:01;;;;;;;11.80;7.27;;;;;;;4.05;100.00;101815.22;7388783;19;20438;-46
2021/11/10 07:30:31;;;;;;;17.50;7.53;;;;;;;4.04;100.00;101815.97;7396734;19;20386;-47
2021/11/10 07:33:00;;;;;;;14.33;7.77;;;;;;;4.06;100.00;101814.47;7389843;19;20502;-47
2021/11/10 07:35:30;;;;;;;15.70;8.07;;;;;;;4.16;100.00;101811.91;7401468;19;20487;-47
2021/11/10 07:37:59;;;;;;;21.93;8.13;;;;;;;4.23;100.00;101803.13;7392549;19;20499;-49
2021/11/10 07:40:31;;;;;;;14.90;7.67;;;;;;;4.32;100.00;101800.44;7396936;19;20447;-48
2021/11/10 07:43:01;;;;;;;18.47;7.40;;;;;;;4.34;100.00;101801.47;7388891;19;20413;-48
2021/11/10 07:45:34;;;;;;;16.37;7.97;;;;;;;4.42;100.00;101800.44;7400160;19;20402;-51
2021/11/10 07:48:05;;;;;;;23.63;8.33;;;;;;;4.52;100.00;101802.09;7397405;19;20427;-46
2021/11/10 07:50:35;;;;;;;16.67;9.57;;;;;;;4.63;100.00;101804.66;7404588;19;20394;-46
2021/11/10 07:53:05;;;;;;;17.40;7.90;;;;;;;4.66;100.00;101794.69;7398443;19;20415;-44
2021/11/10 07:55:37;;;;;;;18.23;8.40;;;;;;;4.79;100.00;101784.72;7403508;19;20392;-49
2021/11/10 07:58:07;;;;;;;18.70;8.03;;;;;;;4.84;100.00;101790.19;7397574;19;20486;-45
2021/11/10 08:00:38;;;;;;;11.80;7.30;;;;;;;4.92;100.00;101789.13;7404002;19;20859;-48
2021/11/10 08:03:08;;;;;;;16.30;7.67;;;;;;;5.01;100.00;101789.00;7396127;19;20458;-47
2021/11/10 08:05:38;;;;;;;31.63;8.30;;;;;;;5.09;100.00;101787.94;7404665;19;20853;-47
2021/11/10 08:08:08;;;;;;;23.90;9.30;;;;;;;5.09;100.00;101781.94;7400568;19;20411;-45
2021/11/10 08:10:57;;;;;;;13.63;6.60;;;;;;;5.18;100.00;101781.78;7403882;19;20395;-49
2021/11/10 08:13:27;;;;;;;14.97;8.47;;;;;;;5.24;100.00;101785.72;7395322;19;20419;-44
2021/11/10 08:15:58;;;;;;;18.87;8.10;;;;;;;5.26;100.00;101781.63;7402576;19;20391;-50
2021/11/10 08:18:28;;;;;;;18.23;9.80;;;;;;;5.38;100.00;101773.13;7396928;19;20487;-47
2021/11/10 08:20:58;;;;;;;17.13;7.97;;;;;;;5.43;100.00;101761.59;7403357;19;20384;-51
2021/11/10 08:23:28;;;;;;;20.80;9.40;;;;;;;5.51;100.00;101757.06;7397102;19;20420;-47
2021/11/10 08:26:00;;;;;;;21.83;9.70;;;;;;;5.64;100.00;101753.81;7403995;19;20845;-51
2021/11/10 08:28:30;;;;;;;17.80;9.20;;;;;;;5.74;100.00;101761.44;7397780;19;20442;-50
2021/11/10 08:31:00;;;;;;;20.13;8.67;;;;;;;5.77;100.00;101761.69;7406816;19;20400;-51
2021/11/10 08:33:30;;;;;;;26.40;14.40;;;;;;;5.91;100.00;101769.53;7396228;19;20492;-50
2021/11/10 08:36:00;;;;;;;16.80;8.43;;;;;;;5.88;100.00;101782.09;7402157;19;20392;-48
2021/11/10 08:38:31;;;;;;;20.20;10.57;;;;;;;5.94;100.00;101769.75;7398367;19;20539;-44
2021/11/10 08:41:03;;;;;;;22.30;9.30;;;;;;;5.98;100.00;101760.63;7402922;19;20382;-44
2021/11/10 08:43:32;;;;;;;34.17;18.53;;;;;;;6.20;100.00;101758.06;7397219;19;20444;-44
2021/11/10 08:46:02;;;;;;;22.53;9.83;;;;;;;6.20;100.00;101756.41;7403186;19;20720;-45
2021/11/10 08:48:31;;;;;;;20.40;8.93;;;;;;;6.21;100.00;101759.88;7395452;19;20418;-44
2021/11/10 08:51:02;;;;;;;19.83;8.10;;;;;;;6.27;100.00;101760.34;7402595;19;20655;-44
2021/11/10 08:53:32;;;;;;;16.80;9.63;;;;;;;6.40;100.00;101762.13;7397836;19;20460;-47
2021/11/10 08:56:04;;;;;;;19.23;9.90;;;;;;;6.43;100.00;101771.72;7401801;19;20463;-44
2021/11/10 08:58:35;;;;;;;17.20;8.50;;;;;;;6.41;100.00;101778.41;7394689;19;20493;-44
2021/11/10 09:01:05;;;;;;;20.50;9.07;;;;;;;6.48;100.00;101770.41;7402143;19;20906;-48
2021/11/10 09:03:34;;;;;;;14.77;8.40;;;;;;;6.62;100.00;101777.44;7394506;19;20485;-44
2021/11/10 09:06:04;;;;;;;20.47;9.47;;;;;;;6.70;100.00;101771.97;7403358;19;20404;-46
2021/11/10 09:08:34;;;;;;;18.40;8.97;;;;;;;6.75;100.00;101775.78;7400786;19;20524;-43
2021/11/10 09:11:06;;;;;;;23.80;8.67;;;;;;;6.69;100.00;101785.59;7404214;19;20402;-47
2021/11/10 09:13:36;;;;;;;18.33;9.93;;;;;;;6.76;100.00;101795.53;7393630;19;20467;-47
2021/11/10 09:16:06;;;;;;;36.63;16.97;;;;;;;6.85;100.00;101806.47;7403931;19;20398;-46
2021/11/10 09:18:35;;;;;;;37.87;14.50;;;;;;;6.70;100.00;101810.47;7394363;19;20899;-46
2021/11/10 09:21:05;;;;;;;21.90;8.70;;;;;;;6.67;100.00;101800.00;7401816;19;20405;-43
2021/11/10 09:23:35;;;;;;;15.27;8.80;;;;;;;6.69;100.00;101798.41;7396278;19;20504;-44
2021/11/10 09:26:07;;;;;;;17.30;9.43;;;;;;;6.73;100.00;101805.56;7401752;19;20468;-46
2021/11/10 09:28:37;;;;;;;28.33;11.30;;;;;;;6.86;100.00;101800.56;7394740;19;20423;-45
2021/11/10 09:31:07;;;;;;;22.20;8.20;;;;;;;6.75;100.00;101792.09;7401265;19;20423;-46
2021/11/10 09:33:40;;;;;;;15.63;7.20;;;;;;;6.82;100.00;101795.09;7392694;19;20426;-45
2021/11/10 09:36:11;;;;;;;18.83;9.23;;;;;;;6.91;100.00;101797.44;7400759;19;20393;-49
2021/11/10 09:38:41;;;;;;;18.33;9.30;;;;;;;6.95;100.00;101796.88;7396467;19;20427;-46
2021/11/10 09:41:16;;;;;;;18.30;8.37;;;;;;;6.95;100.00;101799.44;7401362;19;20411;-48
2021/11/10 09:43:45;;;;;;;22.83;11.37;;;;;;;7.02;100.00;101806.81;7392364;19;20429;-45
2021/11/10 09:46:23;;;;;;;15.20;8.87;;;;;;;7.11;100.00;101806.59;7402934;19;20852;-46
2021/11/10 09:48:57;;;;;;;19.07;8.20;;;;;;;7.10;100.00;101809.94;7393311;19;20420;-44
2021/11/10 09:51:27;;;;;;;24.53;11.57;;;;;;;7.15;100.00;101803.47;7399841;19;20409;-46
2021/11/10 09:53:57;;;;;;;14.83;8.43;;;;;;;7.37;100.00;101805.91;7398010;19;20466;-46
2021/11/10 09:56:29;;;;;;;23.47;10.73;;;;;;;7.70;100.00;101801.38;7399903;19;20409;-44
2021/11/10 09:58:59;;;;;;;14.40;8.30;;;;;;;7.81;100.00;101799.53;7399755;19;20882;-44
2021/11/10 10:01:29;;;;;;;20.57;9.87;;;;;;;7.78;100.00;101798.44;7399555;19;20396;-46
2021/11/10 10:03:59;;;;;;;21.80;10.10;;;;;;;7.85;100.00;101795.53;7402861;19;20403;-51
2021/11/10 10:06:30;;;;;;;14.43;7.43;;;;;;;7.83;100.00;101794.53;7403119;19;20416;-47
2021/11/10 10:09:00;;;;;;;15.90;7.43;;;;;;;7.94;100.00;101796.16;7392599;19;20441;-46
2021/11/10 10:11:32;;;;;;;12.27;6.67;;;;;;;7.92;100.00;101792.59;7400475;19;20419;-45
2021/11/10 10:14:02;;;;;;;17.10;7.00;;;;;;;7.93;100.00;101796.03;7402147;19;20414;-45
2021/11/10 10:16:37;;;;;;;15.37;7.20;;;;;;;8.04;100.00;101791.63;7396707;19;20455;-45
2021/11/10 10:19:08;;;;;;;12.07;6.60;;;;;;;8.10;100.00;101792.06;7403692;19;20404;-49
2021/11/10 10:21:44;;;;;;;11.80;7.40;;;;;;;8.14;100.00;101793.19;7394361;19;20892;-46
2021/11/10 10:24:15;;;;;;;15.37;7.27;;;;;;;8.09;100.00;101790.28;7399400;19;20387;-44
2021/11/10 10:26:47;;;;;;;10.60;6.50;;;;;;;8.23;100.00;101793.81;7392775;19;20391;-48
2021/11/10 10:29:17;;;;;;;12.63;6.60;;;;;;;8.28;100.00;101792.44;7398268;19;20479;-46
2021/11/10 10:31:47;;;;;;;19.93;7.30;;;;;;;8.19;100.00;101792.72;7391396;19;20400;-51
2021/11/10 10:34:18;;;;;;;13.03;7.10;;;;;;;8.26;100.00;101793.13;7400401;19;20463;-45
2021/11/10 10:36:48;;;;;;;15.30;7.10;;;;;;;8.29;100.00;101777.88;7393337;19;20435;-47
2021/11/10 10:39:20;;;;;;;12.83;6.63;;;;;;;8.33;100.00;101774.75;7399006;19;20841;-43
2021/11/10 10:41:56;;;;;;;19.80;8.00;;;;;;;8.33;100.00;101774.75;7391213;19;20380;-47
2021/11/10 10:44:28;;;;;;;12.93;6.70;;;;;;;8.34;100.00;101766.25;7397052;19;20414;-43
2021/11/10 10:46:59;;;;;;;19.63;8.23;;;;;;;8.38;100.00;101768.25;7385956;19;20716;-45
2021/11/10 10:49:33;;;;;;;12.30;6.60;;;;;;;8.43;100.00;101766.88;7396647;19;20738;-45
2021/11/10 10:52:12;;;;;;;12.63;6.63;;;;;;;8.47;100.00;101767.97;7389698;19;20432;-46
2021/11/10 10:54:43;;;;;;;15.87;6.53;;;;;;;8.46;100.00;101774.78;7396019;19;20396;-44
2021/11/10 10:57:17;;;;;;;13.40;7.03;;;;;;;8.52;100.00;101776.91;7388475;19;20419;-47
2021/11/10 10:59:47;;;;;;;11.03;6.40;;;;;;;8.55;100.00;101781.38;7395396;19;20475;-50
2021/11/10 11:02:16;;;;;;;14.83;8.07;;;;;;;8.60;100.00;101783.44;7387300;19;20508;-49
2021/11/10 11:04:47;;;;;;;15.30;6.23;;;;;;;8.59;100.00;101791.06;7395774;19;20474;-44
2021/11/10 11:07:17;;;;;;;11.60;6.30;;;;;;;8.59;100.00;101783.34;7390493;19;20413;-45
2021/11/10 11:09:50;;;;;;;11.90;6.17;;;;;;;8.62;100.00;101780.97;7395678;19;20407;-46
2021/11/10 11:12:27;;;;;;;11.17;5.40;;;;;;;8.64;100.00;101766.53;7388827;19;20483;-48
2021/11/10 11:15:10;;;;;;;12.30;6.77;;;;;;;8.65;100.00;101773.47;7396184;19;20384;-50
2021/11/10 11:17:41;;;;;;;14.17;6.80;;;;;;;8.71;100.00;101778.13;7389454;19;20522;-46
2021/11/10 11:20:12;;;;;;;12.00;5.70;;;;;;;8.67;100.00;101782.16;7397005;19;20729;-48
2021/11/10 11:22:55;;;;;;;9.70;6.27;;;;;;;8.67;100.00;101783.84;7397508;19;20495;-48
2021/11/10 11:25:26;;;;;;;12.90;5.10;;;;;;;8.71;100.00;101779.00;7405028;19;20572;-45
2021/11/10 11:28:00;;;;;;;14.47;6.57;;;;;;;8.59;100.00;101773.94;7396450;19;20419;-50
2021/11/10 11:30:32;;;;;;;11.93;5.80;;;;;;;8.56;100.00;101773.72;7404437;19;20395;-50
2021/11/10 11:33:03;;;;;;;14.70;6.60;;;;;;;8.55;100.00;101765.94;7396650;19;20411;-51